In Rescue
 
Open Full Screen Window  High Contrast Mode
Wind Gusting 14 knots
07
August 19, 2022 6:53 AM CDT
Present Weather: Light Rain
Weather Information
Wind Direction
  260 °
Wind Speed
  07 kt (8 mph)
Wind Gust
  14 kt (16 mph)
Altimeter
29.77 in
Visibility
7 SM
Temperature
17° C
63° F
Dewpoint
16° C
61° F
Humidity
94%
1hr Rain Fall
00.03 in.
24hr Rain Fall
00.12 in.
Sky Condition
Missing
VFR

METAR KETH 191153Z AUTO 26007G14KT 7SM -RA 17/16 A2977 RMK AO2 P0003

FAA Disclaimer: The data displayed is for advisory purposes only and is not to be used for flight planning or operations.
Missing Cloud Data